Time;durP1;ratioP1;P1;durP2;ratioP2;P2;SDS_P1;SDS_P2;PMS_P1;PMS_P2;Temp;Humidity;BMP_temperature;BMP_pressure;BME280_temperature;BME280_humidity;BME280_pressure;Samples;Min_cycle;Max_cycle;Signal;HPM_P1;HPM_P2
2023/01/31 00:00:18;;;;;;;4.23;2.30;;;8.20;81.40;;;;;;940865;151;27335;-78
2023/01/31 00:02:44;;;;;;;6.10;2.10;;;8.10;81.40;;;;;;942801;150;27338;-78
2023/01/31 00:05:11;;;;;;;4.03;2.10;;;8.10;81.50;;;;;;941825;150;27781;-78
2023/01/31 00:07:38;;;;;;;5.60;2.60;;;8.10;81.40;;;;;;941637;150;27429;-78
2023/01/31 00:10:04;;;;;;;6.37;2.40;;;8.10;81.30;;;;;;940814;151;27360;-78
2023/01/31 00:12:31;;;;;;;6.17;2.33;;;8.10;81.10;;;;;;939330;151;27433;-78
2023/01/31 00:14:57;;;;;;;8.53;2.60;;;8.00;81.00;;;;;;940811;151;27446;-78
2023/01/31 00:17:24;;;;;;;7.87;2.67;;;8.00;81.00;;;;;;941835;148;27452;-78
2023/01/31 00:19:51;;;;;;;7.93;2.57;;;8.00;81.00;;;;;;939567;150;27448;-78
2023/01/31 00:22:17;;;;;;;8.03;2.57;;;7.90;81.10;;;;;;941538;151;27418;-78
2023/01/31 00:24:44;;;;;;;4.40;2.20;;;7.80;81.20;;;;;;938974;151;27334;-78
2023/01/31 00:27:10;;;;;;;5.97;1.87;;;7.80;81.40;;;;;;939116;151;27332;-78
2023/01/31 00:29:37;;;;;;;5.17;2.40;;;7.80;81.70;;;;;;938942;149;27534;-78
2023/01/31 00:32:03;;;;;;;5.90;2.17;;;7.80;82.00;;;;;;933594;150;28398;-78
2023/01/31 00:34:30;;;;;;;6.87;2.70;;;7.80;82.20;;;;;;933098;152;27419;-78
2023/01/31 00:36:57;;;;;;;8.27;2.63;;;7.80;82.40;;;;;;933296;151;27278;-78
2023/01/31 00:39:23;;;;;;;6.90;2.10;;;7.80;82.50;;;;;;933493;149;27320;-78
2023/01/31 00:41:50;;;;;;;9.00;2.37;;;7.80;82.80;;;;;;933655;152;27360;-78
2023/01/31 00:44:16;;;;;;;4.97;2.30;;;7.80;82.80;;;;;;931727;151;27562;-78
2023/01/31 00:46:43;;;;;;;7.23;2.50;;;7.80;83.00;;;;;;932525;152;27233;-77
2023/01/31 00:49:10;;;;;;;5.30;2.20;;;7.70;82.80;;;;;;934325;149;27916;-78
2023/01/31 00:51:36;;;;;;;4.60;2.10;;;7.80;83.10;;;;;;934745;152;27433;-78
2023/01/31 00:54:03;;;;;;;10.63;2.73;;;7.70;82.80;;;;;;933023;151;27459;-78
2023/01/31 00:56:29;;;;;;;8.43;2.33;;;7.70;83.00;;;;;;931738;149;27260;-79
2023/01/31 00:58:56;;;;;;;7.77;3.17;;;7.70;83.00;;;;;;932518;152;27301;-79
2023/01/31 01:01:26;;;;;;;7.67;2.07;;;7.70;83.20;;;;;;933160;149;27311;-79
2023/01/31 01:03:52;;;;;;;5.77;2.13;;;7.60;83.20;;;;;;933884;152;27355;-79
2023/01/31 01:06:19;;;;;;;7.17;2.27;;;7.60;82.70;;;;;;933591;152;27277;-79
2023/01/31 01:08:45;;;;;;;6.30;2.40;;;7.50;82.90;;;;;;931308;151;27258;-79
2023/01/31 01:11:12;;;;;;;5.83;2.10;;;7.50;82.70;;;;;;933205;151;27289;-79
2023/01/31 01:13:39;;;;;;;7.43;2.20;;;7.50;82.60;;;;;;931876;152;27352;-78
2023/01/31 01:16:14;;;;;;;5.43;2.30;;;7.40;82.60;;;;;;931896;151;27433;-78
2023/01/31 01:18:40;;;;;;;6.83;2.20;;;7.30;82.80;;;;;;933348;151;27446;-78
2023/01/31 01:21:10;;;;;;;6.00;2.53;;;7.30;82.80;;;;;;933352;149;27759;-79
2023/01/31 01:23:36;;;;;;;7.10;2.10;;;7.30;83.70;;;;;;931279;151;27336;-79
2023/01/31 01:26:04;;;;;;;6.80;2.27;;;7.20;83.20;;;;;;931455;149;27338;-79
2023/01/31 01:28:29;;;;;;;7.20;2.77;;;7.20;83.30;;;;;;932270;152;27379;-79
2023/01/31 01:30:56;;;;;;;5.03;2.47;;;7.10;83.20;;;;;;938598;149;27308;-79
2023/01/31 01:33:23;;;;;;;4.90;2.27;;;7.00;83.20;;;;;;945644;150;27425;-79
2023/01/31 01:35:49;;;;;;;9.27;2.17;;;7.00;83.20;;;;;;943089;148;27441;-79
2023/01/31 01:38:17;;;;;;;6.93;3.10;;;6.90;83.30;;;;;;945322;150;27271;-79
2023/01/31 01:40:42;;;;;;;5.53;2.37;;;6.90;83.60;;;;;;945182;150;27332;-79
2023/01/31 01:43:10;;;;;;;7.50;2.30;;;6.80;83.60;;;;;;946315;148;27302;-78
2023/01/31 01:45:36;;;;;;;9.37;2.33;;;6.70;83.70;;;;;;945144;149;27502;-79
2023/01/31 01:48:02;;;;;;;6.57;2.23;;;6.60;83.90;;;;;;947094;150;27440;-79
2023/01/31 01:50:34;;;;;;;7.30;2.00;;;6.50;84.00;;;;;;943999;150;27344;-79
2023/01/31 01:53:16;;;;;;;6.37;2.17;;;6.50;84.20;;;;;;944825;150;27324;-79
2023/01/31 01:55:48;;;;;;;5.17;2.47;;;6.40;84.30;;;;;;945022;150;27330;-78
2023/01/31 01:58:30;;;;;;;10.00;2.30;;;6.30;84.70;;;;;;945252;150;27336;-79
2023/01/31 02:00:57;;;;;;;7.97;2.73;;;6.30;85.40;;;;;;944411;149;27374;-78
2023/01/31 02:03:23;;;;;;;6.10;2.47;;;6.20;85.70;;;;;;946514;149;27320;-79
2023/01/31 02:05:53;;;;;;;7.63;2.40;;;6.20;86.30;;;;;;944687;150;27319;-79
2023/01/31 02:08:20;;;;;;;7.63;2.27;;;6.20;86.50;;;;;;946384;150;27349;-79
2023/01/31 02:10:58;;;;;;;5.47;2.33;;;6.20;86.50;;;;;;945545;150;27344;-79
2023/01/31 02:13:25;;;;;;;8.90;3.27;;;6.20;86.50;;;;;;944467;149;27279;-79
2023/01/31 02:15:51;;;;;;;7.27;1.90;;;6.20;86.70;;;;;;944388;148;27341;-79
2023/01/31 02:18:18;;;;;;;7.83;2.60;;;6.30;87.10;;;;;;946894;148;27395;-79
2023/01/31 02:21:09;;;;;;;6.87;2.47;;;6.30;87.50;;;;;;943882;149;27369;-78
2023/01/31 02:24:03;;;;;;;5.33;2.40;;;6.30;87.80;;;;;;943554;150;27350;-79
2023/01/31 02:26:51;;;;;;;5.27;2.27;;;6.40;88.10;;;;;;945828;150;27243;-78
2023/01/31 02:29:32;;;;;;;4.77;2.33;;;6.40;88.00;;;;;;946049;150;27324;-78
2023/01/31 02:32:27;;;;;;;7.07;2.20;;;6.50;88.00;;;;;;934133;150;27332;-79
2023/01/31 02:35:06;;;;;;;10.97;2.60;;;6.50;88.10;;;;;;933316;151;27321;-78
2023/01/31 02:37:35;;;;;;;3.57;2.17;;;6.60;88.20;;;;;;931447;152;27353;-78
2023/01/31 02:40:01;;;;;;;4.77;2.30;;;6.70;87.90;;;;;;932798;149;27253;-78
2023/01/31 02:42:47;;;;;;;6.63;2.50;;;6.70;87.60;;;;;;929946;151;27254;-78
2023/01/31 02:45:19;;;;;;;6.20;2.63;;;6.70;87.50;;;;;;931782;151;27294;-78
2023/01/31 02:47:54;;;;;;;8.53;2.60;;;6.80;87.30;;;;;;918729;152;27425;-78
2023/01/31 02:50:24;;;;;;;6.83;2.70;;;6.80;87.10;;;;;;933785;149;28115;-78
2023/01/31 02:53:12;;;;;;;4.87;2.10;;;6.80;86.90;;;;;;931989;152;27344;-78
2023/01/31 02:58:29;;;;;;;7.30;2.83;;;6.90;86.50;;;;;;932408;152;27495;-78
2023/01/31 03:00:56;;;;;;;8.07;3.07;;;6.90;86.10;;;;;;933629;151;27364;-78
2023/01/31 03:03:22;;;;;;;10.50;2.53;;;6.80;85.90;;;;;;932772;151;27297;-78
2023/01/31 03:06:11;;;;;;;8.07;2.90;;;6.80;85.80;;;;;;932090;151;27304;-78
2023/01/31 03:08:37;;;;;;;10.10;2.90;;;6.80;85.60;;;;;;932865;152;27333;-78
2023/01/31 03:11:04;;;;;;;6.80;2.50;;;6.70;85.50;;;;;;932376;149;27399;-78
2023/01/31 03:13:53;;;;;;;5.30;2.70;;;6.70;85.60;;;;;;931335;150;27471;-78
2023/01/31 03:19:15;;;;;;;6.00;2.40;;;6.60;85.40;;;;;;932010;150;27397;-81
2023/01/31 03:21:44;;;;;;;3.67;2.50;;;6.60;85.30;;;;;;932294;152;27426;-78
2023/01/31 03:24:10;;;;;;;5.23;2.60;;;6.50;85.10;;;;;;930877;151;27441;-78
2023/01/31 03:26:37;;;;;;;4.50;2.50;;;6.40;85.10;;;;;;933336;151;27502;-78
2023/01/31 03:29:04;;;;;;;9.53;3.40;;;6.40;85.10;;;;;;931810;150;27395;-78
2023/01/31 03:31:30;;;;;;;6.53;2.97;;;6.30;85.00;;;;;;936514;150;27363;-78
2023/01/31 03:33:57;;;;;;;8.73;3.10;;;6.30;85.10;;;;;;945396;149;27383;-78
2023/01/31 03:36:32;;;;;;;6.90;2.73;;;6.20;85.10;;;;;;944133;149;27452;-78
2023/01/31 03:39:05;;;;;;;4.00;2.07;;;6.10;85.80;;;;;;944110;147;27308;-78
2023/01/31 03:41:37;;;;;;;7.73;2.67;;;6.10;85.20;;;;;;943051;150;28034;-78
2023/01/31 03:44:06;;;;;;;12.10;2.90;;;6.00;85.20;;;;;;944408;150;27292;-79
2023/01/31 03:46:51;;;;;;;7.00;2.80;;;5.90;85.20;;;;;;945451;150;27341;-79
2023/01/31 03:49:17;;;;;;;6.20;2.47;;;5.80;85.30;;;;;;943855;150;27326;-78
2023/01/31 03:51:46;;;;;;;5.73;2.60;;;5.70;85.30;;;;;;945197;148;27886;-78
2023/01/31 03:54:13;;;;;;;5.80;2.63;;;5.70;85.50;;;;;;943186;149;27858;-78
2023/01/31 03:56:42;;;;;;;8.30;2.40;;;5.60;85.70;;;;;;945173;150;27350;-77
2023/01/31 03:59:09;;;;;;;7.80;3.07;;;5.50;85.80;;;;;;947139;150;27404;-78
2023/01/31 04:01:36;;;;;;;7.00;2.83;;;5.50;86.00;;;;;;947244;150;27273;-78
2023/01/31 04:04:02;;;;;;;9.30;3.27;;;5.40;86.00;;;;;;946024;149;27427;-80
2023/01/31 04:06:29;;;;;;;7.90;2.73;;;5.30;86.20;;;;;;940667;150;27334;-78
2023/01/31 04:08:55;;;;;;;5.63;2.43;;;5.30;86.90;;;;;;946950;150;27301;-77
2023/01/31 04:11:22;;;;;;;6.43;2.30;;;5.30;86.90;;;;;;946818;150;27294;-78
2023/01/31 04:13:48;;;;;;;8.70;2.80;;;5.30;87.40;;;;;;944020;149;27293;-78
2023/01/31 04:16:15;;;;;;;5.90;2.80;;;5.20;87.80;;;;;;947022;150;27432;-77
2023/01/31 04:18:42;;;;;;;7.90;2.90;;;5.30;88.30;;;;;;946541;150;28745;-77
2023/01/31 04:21:08;;;;;;;13.60;3.40;;;5.20;88.50;;;;;;945900;150;27261;-77
2023/01/31 04:23:35;;;;;;;7.67;2.87;;;5.30;88.60;;;;;;947672;148;28764;-77
2023/01/31 04:26:01;;;;;;;6.70;2.67;;;5.30;88.60;;;;;;945402;150;27310;-79
2023/01/31 04:28:28;;;;;;;6.03;2.60;;;5.30;88.60;;;;;;946207;150;27338;-78
2023/01/31 04:30:55;;;;;;;5.33;2.27;;;5.30;88.50;;;;;;946169;150;27279;-77
2023/01/31 04:33:21;;;;;;;5.30;2.93;;;5.40;88.30;;;;;;948095;150;27334;-78
2023/01/31 04:35:48;;;;;;;10.07;3.10;;;5.40;88.30;;;;;;944003;148;27343;-77
2023/01/31 04:38:14;;;;;;;8.57;2.23;;;5.40;88.50;;;;;;947342;148;27367;-79
2023/01/31 04:40:41;;;;;;;6.20;2.20;;;5.40;88.50;;;;;;947021;148;27960;-77
2023/01/31 04:43:07;;;;;;;6.33;2.47;;;5.40;88.60;;;;;;944130;150;27360;-76
2023/01/31 04:45:34;;;;;;;8.83;2.87;;;5.40;88.60;;;;;;946844;150;27328;-78
2023/01/31 04:48:01;;;;;;;5.17;2.87;;;5.40;88.60;;;;;;945646;150;27489;-80
2023/01/31 04:50:27;;;;;;;6.07;2.53;;;5.40;88.40;;;;;;946374;150;27434;-78
2023/01/31 04:52:54;;;;;;;8.00;2.67;;;5.40;88.20;;;;;;945228;150;28121;-77
2023/01/31 04:55:20;;;;;;;9.97;2.87;;;5.40;88.00;;;;;;945400;150;27422;-77
2023/01/31 04:57:47;;;;;;;7.20;2.93;;;5.30;87.80;;;;;;944369;150;27404;-78
2023/01/31 05:00:14;;;;;;;9.03;3.10;;;5.30;88.10;;;;;;943714;150;27312;-79
2023/01/31 05:02:40;;;;;;;6.23;2.90;;;5.30;88.40;;;;;;947659;148;27354;-78
2023/01/31 05:05:07;;;;;;;9.33;2.57;;;5.30;88.60;;;;;;944960;150;27394;-77
2023/01/31 05:07:34;;;;;;;6.40;2.97;;;5.30;89.10;;;;;;945721;150;27389;-78
2023/01/31 05:10:00;;;;;;;5.33;2.33;;;5.30;89.20;;;;;;945381;150;28023;-78
2023/01/31 05:12:27;;;;;;;7.77;3.10;;;5.30;89.20;;;;;;946896;148;27342;-76
2023/01/31 05:14:53;;;;;;;5.80;2.63;;;5.30;89.10;;;;;;946152;150;27345;-76
2023/01/31 05:17:25;;;;;;;8.00;2.67;;;5.30;89.10;;;;;;947031;148;27371;-77
2023/01/31 05:19:47;;;;;;;4.70;2.33;;;5.40;88.80;;;;;;943946;149;27824;-79
2023/01/31 05:22:13;;;;;;;7.17;2.87;;;5.40;88.70;;;;;;946838;150;27388;-79
2023/01/31 05:24:40;;;;;;;7.30;2.73;;;5.40;88.40;;;;;;946295;150;27456;-77
2023/01/31 05:27:06;;;;;;;6.80;2.57;;;5.40;88.20;;;;;;945770;150;27804;-77
2023/01/31 05:29:33;;;;;;;4.10;2.17;;;5.30;88.00;;;;;;945625;147;27416;-78
2023/01/31 05:31:59;;;;;;;9.10;2.87;;;5.30;87.80;;;;;;946901;148;27314;-79
2023/01/31 05:34:27;;;;;;;10.00;3.37;;;5.30;88.00;;;;;;937398;148;27486;-79
2023/01/31 05:36:53;;;;;;;4.20;2.43;;;5.20;88.00;;;;;;933171;149;27357;-78
2023/01/31 05:39:19;;;;;;;3.87;2.70;;;5.20;88.30;;;;;;934164;149;27789;-78
2023/01/31 05:41:46;;;;;;;8.13;2.90;;;5.20;88.60;;;;;;933645;150;27426;-77
2023/01/31 05:44:13;;;;;;;6.17;3.20;;;5.20;88.90;;;;;;932737;151;27273;-80
2023/01/31 05:46:39;;;;;;;5.30;3.00;;;5.20;89.00;;;;;;934422;152;27454;-78
2023/01/31 05:49:06;;;;;;;4.37;2.53;;;5.20;89.10;;;;;;932966;149;27338;-78
2023/01/31 05:51:32;;;;;;;4.27;2.67;;;5.20;88.80;;;;;;930928;151;27793;-77
2023/01/31 05:53:59;;;;;;;6.20;2.50;;;5.20;88.50;;;;;;934112;149;27354;-78
2023/01/31 05:56:25;;;;;;;4.10;2.33;;;5.20;88.10;;;;;;933517;150;27405;-78
2023/01/31 05:58:52;;;;;;;7.63;3.00;;;5.20;87.80;;;;;;933265;149;27486;-77
2023/01/31 06:01:18;;;;;;;6.33;3.00;;;5.10;87.60;;;;;;931799;149;27403;-77
2023/01/31 06:03:45;;;;;;;11.67;3.67;;;5.00;87.30;;;;;;933949;151;27371;-77
2023/01/31 06:06:12;;;;;;;5.67;2.83;;;5.00;87.20;;;;;;933637;151;27325;-78
2023/01/31 06:08:39;;;;;;;6.80;3.53;;;4.90;87.40;;;;;;934936;149;27381;-77
2023/01/31 06:11:05;;;;;;;8.83;3.50;;;4.90;87.50;;;;;;934057;151;27367;-77
2023/01/31 06:13:31;;;;;;;5.77;2.83;;;4.80;87.50;;;;;;934435;152;27322;-76
2023/01/31 06:15:58;;;;;;;7.43;2.90;;;4.80;87.80;;;;;;933116;152;27329;-77
2023/01/31 06:18:25;;;;;;;7.43;3.20;;;4.70;87.80;;;;;;933449;149;27445;-76
2023/01/31 06:20:51;;;;;;;5.60;2.77;;;4.60;88.00;;;;;;932966;150;27370;-78
2023/01/31 06:23:18;;;;;;;7.97;2.63;;;4.60;88.30;;;;;;933183;151;27301;-78
2023/01/31 06:25:44;;;;;;;7.60;2.70;;;4.60;88.20;;;;;;932567;152;27338;-78
2023/01/31 06:28:11;;;;;;;9.10;3.00;;;4.50;88.20;;;;;;930373;152;27337;-80
2023/01/31 06:30:37;;;;;;;6.97;3.13;;;4.50;88.50;;;;;;930888;149;27349;-79
2023/01/31 06:33:04;;;;;;;7.20;2.90;;;4.50;88.70;;;;;;931750;152;27297;-79
2023/01/31 06:35:32;;;;;;;6.77;2.50;;;4.50;88.80;;;;;;933757;148;27336;-78
2023/01/31 06:37:57;;;;;;;8.57;3.40;;;4.40;88.90;;;;;;933617;149;27285;-79
2023/01/31 06:40:24;;;;;;;16.90;4.27;;;4.40;89.10;;;;;;932649;149;27361;-79
2023/01/31 06:42:50;;;;;;;9.87;3.27;;;4.40;89.10;;;;;;932671;151;27506;-79
2023/01/31 06:45:17;;;;;;;6.47;3.13;;;4.40;89.30;;;;;;932958;152;27398;-79
2023/01/31 06:47:46;;;;;;;8.23;3.17;;;4.30;89.20;;;;;;933893;149;27322;-79
2023/01/31 06:50:13;;;;;;;4.17;2.40;;;4.30;89.40;;;;;;932767;149;27369;-80
2023/01/31 06:52:40;;;;;;;6.87;2.77;;;4.30;89.50;;;;;;931980;151;27901;-78
2023/01/31 06:55:06;;;;;;;10.43;3.17;;;4.30;89.50;;;;;;932628;152;27252;-78
2023/01/31 06:57:33;;;;;;;6.33;3.10;;;4.20;89.60;;;;;;934203;150;27263;-79
2023/01/31 06:59:59;;;;;;;9.33;3.30;;;4.20;89.80;;;;;;934162;149;27338;-78
2023/01/31 07:02:26;;;;;;;5.67;3.00;;;4.20;90.00;;;;;;930478;152;27347;-80
2023/01/31 07:04:53;;;;;;;5.50;2.80;;;4.20;90.10;;;;;;932958;152;27365;-78
2023/01/31 07:07:19;;;;;;;5.93;2.73;;;4.20;90.30;;;;;;934075;151;27326;-79
2023/01/31 07:09:46;;;;;;;7.43;3.20;;;4.20;90.40;;;;;;934470;151;27400;-79
2023/01/31 07:12:12;;;;;;;7.50;3.23;;;4.30;90.70;;;;;;933946;150;27440;-79
2023/01/31 07:14:39;;;;;;;9.07;3.60;;;4.30;90.90;;;;;;933359;152;27413;-81
2023/01/31 07:17:05;;;;;;;6.93;3.57;;;4.40;91.10;;;;;;931208;152;27493;-79
2023/01/31 07:19:32;;;;;;;6.93;3.40;;;4.50;91.30;;;;;;931203;151;27359;-79
2023/01/31 07:21:59;;;;;;;7.60;3.43;;;4.50;91.40;;;;;;933174;151;27867;-79
2023/01/31 07:24:25;;;;;;;7.57;3.20;;;4.60;91.60;;;;;;930898;152;27299;-81
2023/01/31 07:26:52;;;;;;;8.77;3.63;;;4.70;91.60;;;;;;930505;151;27453;-79
2023/01/31 07:29:18;;;;;;;7.17;3.30;;;4.90;91.70;;;;;;932649;151;27316;-78
2023/01/31 07:31:45;;;;;;;6.13;3.07;;;5.00;91.70;;;;;;933605;152;27419;-79
2023/01/31 07:34:11;;;;;;;6.33;2.93;;;5.10;91.60;;;;;;932855;149;27326;-80
2023/01/31 07:36:38;;;;;;;5.73;2.80;;;5.20;91.50;;;;;;943293;150;27411;-81
2023/01/31 07:39:05;;;;;;;5.93;3.00;;;5.30;91.50;;;;;;943712;150;27720;-80
2023/01/31 07:41:31;;;;;;;9.20;3.10;;;5.40;91.30;;;;;;945436;150;27438;-79
2023/01/31 07:43:58;;;;;;;7.23;3.47;;;5.50;91.20;;;;;;946599;148;27279;-79
2023/01/31 07:46:24;;;;;;;7.43;3.80;;;5.60;91.20;;;;;;947357;150;27391;-79
2023/01/31 07:48:51;;;;;;;5.63;3.57;;;5.70;91.10;;;;;;943700;148;27355;-78
2023/01/31 07:51:18;;;;;;;7.43;3.50;;;5.80;91.00;;;;;;943728;150;27909;-79
2023/01/31 07:53:44;;;;;;;8.20;3.57;;;6.00;91.10;;;;;;947015;150;27286;-79
2023/01/31 07:56:14;;;;;;;9.50;3.70;;;6.00;91.20;;;;;;945453;150;27335;-79
2023/01/31 07:58:40;;;;;;;10.27;3.90;;;6.20;91.40;;;;;;946331;148;27439;-81
2023/01/31 08:03:52;;;;;;;8.87;3.97;;;6.50;91.50;;;;;;946039;150;27373;-76
2023/01/31 08:06:18;;;;;;;10.37;4.53;;;6.70;91.30;;;;;;947044;150;27250;-77
2023/01/31 08:08:45;;;;;;;7.87;4.50;;;6.80;91.10;;;;;;947874;148;27319;-77
2023/01/31 08:11:12;;;;;;;8.07;3.90;;;7.00;91.00;;;;;;945314;149;27328;-79
2023/01/31 08:13:38;;;;;;;7.30;4.87;;;7.20;90.70;;;;;;945946;150;27351;-76
2023/01/31 08:16:05;;;;;;;8.20;4.30;;;7.30;90.30;;;;;;944993;150;27461;-79
2023/01/31 08:18:31;;;;;;;8.20;3.70;;;7.40;89.70;;;;;;944202;150;27400;-76
2023/01/31 08:20:58;;;;;;;8.17;4.30;;;7.50;89.00;;;;;;945656;148;27358;-77
2023/01/31 08:23:24;;;;;;;8.63;4.13;;;7.50;88.40;;;;;;947459;150;27427;-78
2023/01/31 08:25:51;;;;;;;9.87;5.47;;;7.60;88.00;;;;;;945903;150;28404;-77
2023/01/31 08:28:18;;;;;;;11.13;5.40;;;7.60;87.90;;;;;;944890;150;27317;-77
2023/01/31 08:30:44;;;;;;;8.90;5.43;;;7.60;87.60;;;;;;944670;150;27866;-77
2023/01/31 08:33:11;;;;;;;8.40;5.20;;;7.70;87.50;;;;;;947794;150;27326;-79
2023/01/31 08:35:37;;;;;;;11.87;5.73;;;7.70;87.30;;;;;;944834;147;27393;-78
2023/01/31 08:38:04;;;;;;;10.10;5.97;;;7.70;87.10;;;;;;946857;150;27338;-77
2023/01/31 08:40:31;;;;;;;9.07;5.37;;;7.80;86.90;;;;;;945829;150;27385;-78
2023/01/31 08:42:57;;;;;;;8.00;4.37;;;7.80;86.40;;;;;;944994;147;27344;-79
2023/01/31 08:45:24;;;;;;;10.10;5.40;;;7.90;86.30;;;;;;944444;147;27347;-78
2023/01/31 08:47:56;;;;;;;9.67;5.53;;;7.90;86.10;;;;;;944297;150;29128;-77
2023/01/31 08:50:23;;;;;;;9.67;5.70;;;7.90;86.30;;;;;;943235;150;27416;-78
2023/01/31 08:52:52;;;;;;;8.33;5.03;;;7.90;85.50;;;;;;944323;148;27306;-79
2023/01/31 08:55:18;;;;;;;10.50;5.83;;;8.00;85.30;;;;;;945430;150;27491;-78
2023/01/31 08:57:45;;;;;;;8.50;5.50;;;8.00;85.20;;;;;;943947;150;27334;-78
2023/01/31 09:00:12;;;;;;;11.43;6.37;;;8.00;85.00;;;;;;944600;148;27345;-78
2023/01/31 09:02:38;;;;;;;8.67;5.77;;;8.00;84.90;;;;;;945307;150;27445;-78
2023/01/31 09:05:07;;;;;;;8.57;5.93;;;8.00;84.60;;;;;;945630;148;27832;-77
2023/01/31 09:07:31;;;;;;;9.80;6.17;;;8.00;84.70;;;;;;944732;149;27311;-78
2023/01/31 09:09:58;;;;;;;10.07;6.10;;;8.00;84.60;;;;;;945174;150;27279;-78
2023/01/31 09:12:25;;;;;;;8.87;6.40;;;8.00;84.60;;;;;;944056;150;27312;-78
2023/01/31 09:14:51;;;;;;;11.10;6.40;;;8.00;84.40;;;;;;943165;148;27302;-79
2023/01/31 09:17:18;;;;;;;11.50;6.57;;;8.00;84.20;;;;;;944751;148;28684;-77
2023/01/31 09:19:44;;;;;;;11.13;6.60;;;8.00;84.20;;;;;;944949;150;28485;-79
2023/01/31 09:22:11;;;;;;;9.50;6.17;;;8.00;84.20;;;;;;947565;150;27383;-78
2023/01/31 09:24:37;;;;;;;9.53;6.77;;;8.10;84.70;;;;;;945747;148;27295;-78
2023/01/31 09:27:04;;;;;;;8.93;6.67;;;8.20;85.50;;;;;;946301;148;27426;-79
2023/01/31 09:29:31;;;;;;;8.33;6.53;;;8.30;85.80;;;;;;946932;148;27356;-78
2023/01/31 09:31:57;;;;;;;5.77;4.90;;;8.40;85.80;;;;;;944735;150;27379;-77
2023/01/31 09:34:24;;;;;;;9.47;6.27;;;8.60;85.40;;;;;;944212;150;27809;-78
2023/01/31 09:36:50;;;;;;;9.03;6.10;;;8.70;85.10;;;;;;945666;148;27326;-78
2023/01/31 09:39:17;;;;;;;9.33;5.73;;;8.80;84.40;;;;;;943254;148;27367;-78
2023/01/31 09:41:44;;;;;;;8.17;5.27;;;8.90;83.90;;;;;;943386;150;27812;-79
2023/01/31 09:44:10;;;;;;;9.00;5.57;;;9.00;84.10;;;;;;944461;150;27275;-78
2023/01/31 09:46:37;;;;;;;9.07;5.77;;;9.10;84.20;;;;;;945369;149;27337;-79
2023/01/31 09:49:04;;;;;;;7.90;4.97;;;9.20;84.00;;;;;;944734;150;27376;-80
2023/01/31 09:51:30;;;;;;;7.63;4.77;;;9.30;84.00;;;;;;944512;149;27359;-79
2023/01/31 09:53:56;;;;;;;9.27;5.30;;;9.40;84.00;;;;;;946027;150;27312;-77
2023/01/31 09:56:35;;;;;;;8.27;5.40;;;9.60;83.40;;;;;;943562;150;27285;-78
2023/01/31 09:59:07;;;;;;;9.53;5.50;;;9.70;82.50;;;;;;945204;149;27251;-80
2023/01/31 10:01:48;;;;;;;9.27;5.60;;;9.70;81.80;;;;;;937591;150;28371;-79
2023/01/31 10:04:21;;;;;;;9.67;5.57;;;9.70;81.20;;;;;;928154;150;27772;-78
2023/01/31 10:06:57;;;;;;;10.47;5.47;;;9.70;79.70;;;;;;946637;150;27850;-79
2023/01/31 10:09:41;;;;;;;9.97;5.23;;;9.60;81.00;;;;;;942999;150;27354;-79
2023/01/31 10:12:25;;;;;;;7.57;4.90;;;9.60;80.10;;;;;;944971;149;27290;-76
2023/01/31 10:14:52;;;;;;;7.40;4.80;;;9.50;79.80;;;;;;938721;150;27372;-76
2023/01/31 10:17:21;;;;;;;7.27;5.03;;;9.40;79.30;;;;;;943531;149;27460;-75
2023/01/31 10:19:56;;;;;;;7.97;5.03;;;9.30;78.90;;;;;;938966;150;27828;-75
2023/01/31 10:22:26;;;;;;;9.00;5.13;;;9.20;79.00;;;;;;945807;148;27340;-76
2023/01/31 10:24:52;;;;;;;8.67;5.10;;;9.10;79.30;;;;;;942571;149;27440;-78
2023/01/31 10:27:19;;;;;;;8.83;5.50;;;9.00;79.70;;;;;;942170;149;27350;-76
2023/01/31 10:29:51;;;;;;;6.67;4.97;;;9.00;79.90;;;;;;933597;150;27317;-77
2023/01/31 10:32:18;;;;;;;7.73;4.97;;;8.90;79.80;;;;;;945938;150;27428;-77
2023/01/31 10:34:50;;;;;;;7.47;4.50;;;8.90;79.90;;;;;;944499;150;27427;-77
2023/01/31 10:37:25;;;;;;;10.50;5.20;;;8.90;80.00;;;;;;942836;148;27488;-76
2023/01/31 10:39:52;;;;;;;9.60;4.50;;;8.80;80.30;;;;;;931867;151;27769;-78
2023/01/31 10:42:21;;;;;;;7.97;6.30;;;8.80;80.40;;;;;;930362;151;27881;-77
2023/01/31 10:45:00;;;;;;;7.77;5.13;;;8.80;80.70;;;;;;931081;149;27372;-79
2023/01/31 10:47:26;;;;;;;10.63;6.00;;;8.80;80.70;;;;;;933093;149;27799;-78
2023/01/31 10:49:53;;;;;;;7.93;5.43;;;8.70;80.50;;;;;;932243;151;27817;-77
2023/01/31 10:52:31;;;;;;;9.33;5.60;;;8.70;80.60;;;;;;933461;152;27300;-77
2023/01/31 10:54:58;;;;;;;9.17;5.97;;;8.70;80.60;;;;;;931181;149;27425;-77
2023/01/31 10:57:25;;;;;;;10.40;5.33;;;8.60;80.30;;;;;;923565;152;27449;-80
2023/01/31 10:59:51;;;;;;;7.07;5.37;;;8.60;80.70;;;;;;933871;149;27357;-76
2023/01/31 11:02:20;;;;;;;7.17;5.07;;;8.60;80.90;;;;;;933301;151;27325;-77
2023/01/31 11:04:47;;;;;;;9.37;5.50;;;8.60;81.00;;;;;;932220;151;27369;-78
2023/01/31 11:07:14;;;;;;;12.50;5.83;;;8.60;80.90;;;;;;932419;152;27443;-76
2023/01/31 11:09:40;;;;;;;9.67;5.80;;;8.50;81.10;;;;;;933626;149;28065;-76
2023/01/31 11:12:07;;;;;;;6.80;5.17;;;8.60;81.40;;;;;;932292;152;27499;-78
2023/01/31 11:14:35;;;;;;;8.53;5.87;;;8.50;81.40;;;;;;934187;149;27305;-78
2023/01/31 11:17:06;;;;;;;8.27;5.13;;;8.50;81.60;;;;;;934657;151;27417;-79
2023/01/31 11:19:35;;;;;;;12.40;5.93;;;8.50;81.60;;;;;;932647;149;27456;-76
2023/01/31 11:22:02;;;;;;;9.83;6.40;;;8.50;81.70;;;;;;932032;152;27418;-77
2023/01/31 11:24:28;;;;;;;10.33;6.03;;;8.50;81.70;;;;;;931821;152;27429;-75
2023/01/31 11:27:04;;;;;;;11.57;6.03;;;8.50;81.70;;;;;;935279;149;27367;-77
2023/01/31 11:29:30;;;;;;;8.87;5.40;;;8.50;81.80;;;;;;933538;151;27446;-75
2023/01/31 11:31:57;;;;;;;6.93;5.03;;;8.50;81.80;;;;;;931182;149;27326;-74
2023/01/31 11:34:23;;;;;;;8.87;5.80;;;8.50;82.00;;;;;;933326;149;27446;-76
2023/01/31 11:36:50;;;;;;;7.87;5.20;;;8.50;82.10;;;;;;934887;151;27336;-78
2023/01/31 11:39:36;;;;;;;10.70;5.97;;;8.50;82.20;;;;;;938781;150;27402;-74
2023/01/31 11:42:04;;;;;;;8.63;5.63;;;8.40;82.20;;;;;;943255;151;27300;-76
2023/01/31 11:44:31;;;;;;;7.40;5.00;;;8.50;82.30;;;;;;941006;151;27436;-76
2023/01/31 11:47:03;;;;;;;8.80;5.40;;;8.50;82.30;;;;;;941031;151;27328;-79
2023/01/31 11:49:30;;;;;;;10.20;5.00;;;8.50;82.40;;;;;;939858;150;27364;-75
2023/01/31 11:51:56;;;;;;;9.50;5.70;;;8.50;82.60;;;;;;939994;151;27396;-76
2023/01/31 11:54:23;;;;;;;7.87;5.80;;;8.50;82.70;;;;;;941669;150;27453;-76
2023/01/31 11:56:50;;;;;;;10.13;5.90;;;8.50;82.80;;;;;;940130;151;27677;-78
2023/01/31 11:59:16;;;;;;;10.33;5.70;;;8.50;83.70;;;;;;940800;150;27384;-75
2023/01/31 12:01:43;;;;;;;8.17;4.83;;;8.60;83.80;;;;;;938793;150;27349;-76
2023/01/31 12:04:09;;;;;;;7.43;4.97;;;8.60;83.30;;;;;;938936;150;27368;-75
2023/01/31 12:06:36;;;;;;;7.17;5.07;;;8.70;83.70;;;;;;942353;150;27263;-75
2023/01/31 12:09:02;;;;;;;8.97;4.70;;;8.90;84.10;;;;;;941044;151;27257;-79
2023/01/31 12:11:29;;;;;;;8.80;5.23;;;8.90;84.20;;;;;;939270;151;27368;-76
2023/01/31 12:14:14;;;;;;;7.37;5.43;;;9.10;84.10;;;;;;940590;151;27323;-76
2023/01/31 12:16:41;;;;;;;10.50;5.17;;;9.20;84.00;;;;;;939362;151;27370;-77
2023/01/31 12:19:13;;;;;;;8.57;5.27;;;9.30;83.70;;;;;;940979;148;27376;-77
2023/01/31 12:22:13;;;;;;;9.10;5.30;;;9.50;82.90;;;;;;940650;151;27331;-79
2023/01/31 12:25:07;;;;;;;6.30;4.57;;;9.60;82.50;;;;;;942280;151;27436;-81
2023/01/31 12:27:40;;;;;;;11.00;5.07;;;9.60;82.00;;;;;;941327;151;27360;-77
2023/01/31 12:30:16;;;;;;;6.70;4.90;;;9.60;81.60;;;;;;933916;151;27534;-78
2023/01/31 12:32:51;;;;;;;7.10;5.03;;;9.60;81.40;;;;;;942715;148;28182;-76
2023/01/31 12:35:43;;;;;;;7.73;4.97;;;9.60;81.20;;;;;;941140;151;27823;-77
2023/01/31 12:38:12;;;;;;;7.40;4.57;;;9.50;80.80;;;;;;942185;150;27288;-76
2023/01/31 12:40:41;;;;;;;8.67;5.13;;;9.60;80.80;;;;;;942769;150;27919;-76
2023/01/31 12:43:23;;;;;;;8.40;5.50;;;9.50;80.70;;;;;;945079;150;27357;-76
2023/01/31 12:46:08;;;;;;;9.90;5.03;;;9.50;80.60;;;;;;907468;149;27465;-75
2023/01/31 12:49:01;;;;;;;10.40;5.23;;;9.50;80.70;;;;;;943462;149;27365;-76
2023/01/31 12:52:01;;;;;;;8.50;5.50;;;9.50;80.70;;;;;;946028;149;27295;-76
2023/01/31 12:54:28;;;;;;;8.50;5.50;;;9.50;80.90;;;;;;944545;150;27653;-78
2023/01/31 12:57:13;;;;;;;9.37;6.37;;;9.50;81.10;;;;;;947818;150;27375;-76
2023/01/31 12:59:55;;;;;;;8.90;5.60;;;9.50;81.40;;;;;;930640;149;27357;-76
2023/01/31 13:02:24;;;;;;;10.37;5.80;;;9.60;81.30;;;;;;946234;149;27769;-76
2023/01/31 13:05:09;;;;;;;10.87;5.87;;;9.60;81.40;;;;;;947184;150;27723;-76
2023/01/31 13:07:35;;;;;;;8.90;5.70;;;9.60;80.90;;;;;;942399;150;27280;-74
2023/01/31 13:10:02;;;;;;;9.63;5.67;;;9.70;80.90;;;;;;945225;149;27419;-75
2023/01/31 13:12:29;;;;;;;10.67;5.53;;;9.70;80.60;;;;;;947245;150;27354;-76